sensor_id;sensor_type;location;lat;lon;timestamp;temperature;humidity
2841;DHT22;53423;49.224;12.074;2022-07-29T00:01:17;21.40;56.60
2841;DHT22;53423;49.224;12.074;2022-07-29T00:03:47;21.40;56.70
2841;DHT22;53423;49.224;12.074;2022-07-29T00:06:15;21.30;56.40
2841;DHT22;53423;49.224;12.074;2022-07-29T00:08:44;21.30;56.40
2841;DHT22;53423;49.224;12.074;2022-07-29T00:11:12;21.30;56.30
2841;DHT22;53423;49.224;12.074;2022-07-29T00:13:40;21.30;56.50
2841;DHT22;53423;49.224;12.074;2022-07-29T00:16:13;21.20;56.30
2841;DHT22;53423;49.224;12.074;2022-07-29T00:18:41;21.20;56.80
2841;DHT22;53423;49.224;12.074;2022-07-29T00:21:11;21.10;57.20
2841;DHT22;53423;49.224;12.074;2022-07-29T00:23:39;21.10;56.70
2841;DHT22;53423;49.224;12.074;2022-07-29T00:26:07;21.10;56.90
2841;DHT22;53423;49.224;12.074;2022-07-29T00:28:35;21.00;56.70
2841;DHT22;53423;49.224;12.074;2022-07-29T00:31:03;21.10;56.90
2841;DHT22;53423;49.224;12.074;2022-07-29T00:33:31;21.10;57.20
2841;DHT22;53423;49.224;12.074;2022-07-29T00:35:59;21.10;57.10
2841;DHT22;53423;49.224;12.074;2022-07-29T00:38:27;21.10;56.50
2841;DHT22;53423;49.224;12.074;2022-07-29T00:40:55;21.10;57.00
2841;DHT22;53423;49.224;12.074;2022-07-29T00:43:23;21.10;57.50
2841;DHT22;53423;49.224;12.074;2022-07-29T00:45:51;21.10;56.90
2841;DHT22;53423;49.224;12.074;2022-07-29T00:48:19;21.10;57.10
2841;DHT22;53423;49.224;12.074;2022-07-29T00:50:49;21.10;57.20
2841;DHT22;53423;49.224;12.074;2022-07-29T00:53:17;21.10;57.00
2841;DHT22;53423;49.224;12.074;2022-07-29T00:55:49;21.10;57.00
2841;DHT22;53423;49.224;12.074;2022-07-29T00:58:18;21.10;57.30
2841;DHT22;53423;49.224;12.074;2022-07-29T01:00:46;21.10;57.50
2841;DHT22;53423;49.224;12.074;2022-07-29T01:03:14;21.10;57.30
2841;DHT22;53423;49.224;12.074;2022-07-29T01:05:44;21.10;57.00
2841;DHT22;53423;49.224;12.074;2022-07-29T01:08:17;21.10;57.30
2841;DHT22;53423;49.224;12.074;2022-07-29T01:10:48;21.10;57.50
2841;DHT22;53423;49.224;12.074;2022-07-29T01:13:17;21.10;58.10
2841;DHT22;53423;49.224;12.074;2022-07-29T01:15:49;21.00;58.60
2841;DHT22;53423;49.224;12.074;2022-07-29T01:18:24;21.00;58.60
2841;DHT22;53423;49.224;12.074;2022-07-29T01:21:14;20.90;58.20
2841;DHT22;53423;49.224;12.074;2022-07-29T01:24:03;20.90;58.30
2841;DHT22;53423;49.224;12.074;2022-07-29T01:26:47;20.90;58.30
2841;DHT22;53423;49.224;12.074;2022-07-29T01:29:23;20.90;58.50
2841;DHT22;53423;49.224;12.074;2022-07-29T01:32:05;20.90;58.00
2841;DHT22;53423;49.224;12.074;2022-07-29T01:34:56;20.90;58.90
2841;DHT22;53423;49.224;12.074;2022-07-29T01:37:29;20.90;58.80
2841;DHT22;53423;49.224;12.074;2022-07-29T01:39:59;20.80;59.10
2841;DHT22;53423;49.224;12.074;2022-07-29T01:42:32;20.80;58.90
2841;DHT22;53423;49.224;12.074;2022-07-29T01:45:08;20.80;58.50
2841;DHT22;53423;49.224;12.074;2022-07-29T01:47:40;20.80;57.90
2841;DHT22;53423;49.224;12.074;2022-07-29T01:50:12;20.80;58.30
2841;DHT22;53423;49.224;12.074;2022-07-29T01:52:46;20.70;58.20
2841;DHT22;53423;49.224;12.074;2022-07-29T01:55:17;20.70;58.40
2841;DHT22;53423;49.224;12.074;2022-07-29T01:57:48;20.80;58.60
2841;DHT22;53423;49.224;12.074;2022-07-29T02:00:18;20.80;57.70
2841;DHT22;53423;49.224;12.074;2022-07-29T02:02:47;20.80;58.00
2841;DHT22;53423;49.224;12.074;2022-07-29T02:05:18;20.80;58.40
2841;DHT22;53423;49.224;12.074;2022-07-29T02:07:48;20.70;58.50
2841;DHT22;53423;49.224;12.074;2022-07-29T02:10:20;20.70;59.10
2841;DHT22;53423;49.224;12.074;2022-07-29T02:12:52;20.70;59.40
2841;DHT22;53423;49.224;12.074;2022-07-29T02:15:24;20.60;60.30
2841;DHT22;53423;49.224;12.074;2022-07-29T02:17:56;20.60;60.60
2841;DHT22;53423;49.224;12.074;2022-07-29T02:20:26;20.60;60.50
2841;DHT22;53423;49.224;12.074;2022-07-29T02:22:57;20.50;61.20
2841;DHT22;53423;49.224;12.074;2022-07-29T02:25:26;20.50;61.10
2841;DHT22;53423;49.224;12.074;2022-07-29T02:28:06;20.40;61.40
2841;DHT22;53423;49.224;12.074;2022-07-29T02:30:36;20.40;61.50
2841;DHT22;53423;49.224;12.074;2022-07-29T02:33:08;20.30;62.20
2841;DHT22;53423;49.224;12.074;2022-07-29T02:35:38;20.30;62.50
2841;DHT22;53423;49.224;12.074;2022-07-29T02:38:08;20.20;62.00
2841;DHT22;53423;49.224;12.074;2022-07-29T02:40:55;20.20;62.50
2841;DHT22;53423;49.224;12.074;2022-07-29T02:43:25;20.20;62.20
2841;DHT22;53423;49.224;12.074;2022-07-29T02:45:55;20.20;62.50
2841;DHT22;53423;49.224;12.074;2022-07-29T02:48:30;20.00;62.90
2841;DHT22;53423;49.224;12.074;2022-07-29T02:51:05;20.00;63.40
2841;DHT22;53423;49.224;12.074;2022-07-29T02:53:35;20.00;63.30
2841;DHT22;53423;49.224;12.074;2022-07-29T02:56:07;19.90;63.90
2841;DHT22;53423;49.224;12.074;2022-07-29T02:58:39;19.90;63.80
2841;DHT22;53423;49.224;12.074;2022-07-29T03:01:12;19.90;63.70
2841;DHT22;53423;49.224;12.074;2022-07-29T03:03:49;19.90;64.30
2841;DHT22;53423;49.224;12.074;2022-07-29T03:06:19;19.90;65.10
2841;DHT22;53423;49.224;12.074;2022-07-29T03:09:05;19.80;64.30
2841;DHT22;53423;49.224;12.074;2022-07-29T03:11:39;19.80;65.20
2841;DHT22;53423;49.224;12.074;2022-07-29T03:14:17;19.80;65.10
2841;DHT22;53423;49.224;12.074;2022-07-29T03:16:49;19.70;64.50
2841;DHT22;53423;49.224;12.074;2022-07-29T03:19:19;19.70;64.80
2841;DHT22;53423;49.224;12.074;2022-07-29T03:21:48;19.70;64.80
2841;DHT22;53423;49.224;12.074;2022-07-29T03:24:27;19.70;65.70
2841;DHT22;53423;49.224;12.074;2022-07-29T03:26:56;19.70;66.00
2841;DHT22;53423;49.224;12.074;2022-07-29T03:29:25;19.60;66.10
2841;DHT22;53423;49.224;12.074;2022-07-29T03:32:02;19.60;66.80
2841;DHT22;53423;49.224;12.074;2022-07-29T03:34:35;19.50;67.00
2841;DHT22;53423;49.224;12.074;2022-07-29T03:37:03;19.40;67.40
2841;DHT22;53423;49.224;12.074;2022-07-29T03:39:35;19.40;67.00
2841;DHT22;53423;49.224;12.074;2022-07-29T03:42:05;19.40;68.30
2841;DHT22;53423;49.224;12.074;2022-07-29T03:44:35;19.30;67.30
2841;DHT22;53423;49.224;12.074;2022-07-29T03:47:05;19.40;66.90
2841;DHT22;53423;49.224;12.074;2022-07-29T03:49:36;19.40;66.60
2841;DHT22;53423;49.224;12.074;2022-07-29T03:52:05;19.40;66.00
2841;DHT22;53423;49.224;12.074;2022-07-29T03:54:33;19.40;65.30
2841;DHT22;53423;49.224;12.074;2022-07-29T03:57:02;19.50;65.60
2841;DHT22;53423;49.224;12.074;2022-07-29T03:59:33;19.50;66.00
2841;DHT22;53423;49.224;12.074;2022-07-29T04:02:02;19.50;65.70
2841;DHT22;53423;49.224;12.074;2022-07-29T04:04:34;19.50;66.30
2841;DHT22;53423;49.224;12.074;2022-07-29T04:07:03;19.50;65.90
2841;DHT22;53423;49.224;12.074;2022-07-29T04:09:31;19.60;66.00
2841;DHT22;53423;49.224;12.074;2022-07-29T04:11:59;19.60;65.40
2841;DHT22;53423;49.224;12.074;2022-07-29T04:14:30;19.50;65.30
2841;DHT22;53423;49.224;12.074;2022-07-29T04:16:59;19.50;64.50
2841;DHT22;53423;49.224;12.074;2022-07-29T04:19:27;19.60;65.70
2841;DHT22;53423;49.224;12.074;2022-07-29T04:21:57;19.60;65.80
2841;DHT22;53423;49.224;12.074;2022-07-29T04:24:25;19.60;66.20
2841;DHT22;53423;49.224;12.074;2022-07-29T04:26:53;19.60;65.50
2841;DHT22;53423;49.224;12.074;2022-07-29T04:29:21;19.60;65.50
2841;DHT22;53423;49.224;12.074;2022-07-29T04:31:49;19.60;66.00
2841;DHT22;53423;49.224;12.074;2022-07-29T04:34:17;19.70;66.80
2841;DHT22;53423;49.224;12.074;2022-07-29T04:36:46;19.70;66.20
2841;DHT22;53423;49.224;12.074;2022-07-29T04:39:15;19.70;67.20
2841;DHT22;53423;49.224;12.074;2022-07-29T04:41:49;19.70;68.00
2841;DHT22;53423;49.224;12.074;2022-07-29T04:44:20;19.70;67.60
2841;DHT22;53423;49.224;12.074;2022-07-29T04:46:55;19.70;67.60
2841;DHT22;53423;49.224;12.074;2022-07-29T04:49:23;19.70;67.40
2841;DHT22;53423;49.224;12.074;2022-07-29T04:51:51;19.70;67.20
2841;DHT22;53423;49.224;12.074;2022-07-29T04:54:21;19.70;67.50
2841;DHT22;53423;49.224;12.074;2022-07-29T04:56:50;19.70;68.30
2841;DHT22;53423;49.224;12.074;2022-07-29T04:59:18;19.70;69.60
2841;DHT22;53423;49.224;12.074;2022-07-29T05:01:46;19.70;68.90
2841;DHT22;53423;49.224;12.074;2022-07-29T05:04:14;19.80;69.20
2841;DHT22;53423;49.224;12.074;2022-07-29T05:06:43;19.80;68.50
2841;DHT22;53423;49.224;12.074;2022-07-29T05:09:11;19.80;69.50
2841;DHT22;53423;49.224;12.074;2022-07-29T05:11:40;19.80;68.90
2841;DHT22;53423;49.224;12.074;2022-07-29T05:14:08;19.90;68.60
2841;DHT22;53423;49.224;12.074;2022-07-29T05:16:36;19.80;69.10
2841;DHT22;53423;49.224;12.074;2022-07-29T05:19:06;19.80;69.70
2841;DHT22;53423;49.224;12.074;2022-07-29T05:21:40;19.80;70.50
2841;DHT22;53423;49.224;12.074;2022-07-29T05:24:08;19.80;70.20
2841;DHT22;53423;49.224;12.074;2022-07-29T05:26:36;19.80;70.50
2841;DHT22;53423;49.224;12.074;2022-07-29T05:29:05;19.70;70.30
2841;DHT22;53423;49.224;12.074;2022-07-29T05:31:53;19.70;70.80
2841;DHT22;53423;49.224;12.074;2022-07-29T05:34:22;19.70;71.50
2841;DHT22;53423;49.224;12.074;2022-07-29T05:36:51;19.70;71.90
2841;DHT22;53423;49.224;12.074;2022-07-29T05:39:20;19.70;71.80
2841;DHT22;53423;49.224;12.074;2022-07-29T05:42:08;19.60;72.20
2841;DHT22;53423;49.224;12.074;2022-07-29T05:44:38;19.60;73.20
2841;DHT22;53423;49.224;12.074;2022-07-29T05:47:06;19.60;72.20
2841;DHT22;53423;49.224;12.074;2022-07-29T05:49:34;19.60;72.90
2841;DHT22;53423;49.224;12.074;2022-07-29T05:52:03;19.60;73.00
2841;DHT22;53423;49.224;12.074;2022-07-29T05:54:31;19.60;73.30
2841;DHT22;53423;49.224;12.074;2022-07-29T05:56:59;19.60;74.10
2841;DHT22;53423;49.224;12.074;2022-07-29T05:59:27;19.60;74.20
2841;DHT22;53423;49.224;12.074;2022-07-29T06:01:57;19.60;75.10
2841;DHT22;53423;49.224;12.074;2022-07-29T06:04:25;19.60;77.00
2841;DHT22;53423;49.224;12.074;2022-07-29T06:06:53;19.50;79.00
2841;DHT22;53423;49.224;12.074;2022-07-29T06:09:21;19.50;78.40
2841;DHT22;53423;49.224;12.074;2022-07-29T06:11:50;19.50;78.60
2841;DHT22;53423;49.224;12.074;2022-07-29T06:14:19;19.50;78.70
2841;DHT22;53423;49.224;12.074;2022-07-29T06:16:47;19.50;77.50
2841;DHT22;53423;49.224;12.074;2022-07-29T06:19:16;19.50;77.80
2841;DHT22;53423;49.224;12.074;2022-07-29T06:21:46;19.50;79.60
2841;DHT22;53423;49.224;12.074;2022-07-29T06:24:15;19.50;80.30
2841;DHT22;53423;49.224;12.074;2022-07-29T06:26:44;19.40;81.10
2841;DHT22;53423;49.224;12.074;2022-07-29T06:29:12;19.40;81.40
2841;DHT22;53423;49.224;12.074;2022-07-29T06:31:40;19.40;82.00
2841;DHT22;53423;49.224;12.074;2022-07-29T06:34:08;19.50;81.70
2841;DHT22;53423;49.224;12.074;2022-07-29T06:36:38;19.50;83.40
2841;DHT22;53423;49.224;12.074;2022-07-29T06:39:07;19.60;84.30
2841;DHT22;53423;49.224;12.074;2022-07-29T06:41:39;19.50;84.20
2841;DHT22;53423;49.224;12.074;2022-07-29T06:44:07;19.50;84.90
2841;DHT22;53423;49.224;12.074;2022-07-29T06:46:35;19.50;85.80
2841;DHT22;53423;49.224;12.074;2022-07-29T06:49:04;19.50;86.10
2841;DHT22;53423;49.224;12.074;2022-07-29T06:51:32;19.50;87.50
2841;DHT22;53423;49.224;12.074;2022-07-29T06:54:02;19.50;87.70
2841;DHT22;53423;49.224;12.074;2022-07-29T06:56:33;19.60;88.30
2841;DHT22;53423;49.224;12.074;2022-07-29T06:59:06;19.60;89.60
2841;DHT22;53423;49.224;12.074;2022-07-29T07:01:35;19.70;88.70
2841;DHT22;53423;49.224;12.074;2022-07-29T07:04:05;19.80;89.60
2841;DHT22;53423;49.224;12.074;2022-07-29T07:06:33;19.80;86.90
2841;DHT22;53423;49.224;12.074;2022-07-29T07:09:03;19.90;84.90
2841;DHT22;53423;49.224;12.074;2022-07-29T07:11:31;19.90;83.70
2841;DHT22;53423;49.224;12.074;2022-07-29T07:13:59;20.00;85.40
2841;DHT22;53423;49.224;12.074;2022-07-29T07:16:30;20.10;84.30
2841;DHT22;53423;49.224;12.074;2022-07-29T07:18:58;20.20;83.80
2841;DHT22;53423;49.224;12.074;2022-07-29T07:21:26;20.30;80.80
2841;DHT22;53423;49.224;12.074;2022-07-29T07:23:56;20.30;81.10
2841;DHT22;53423;49.224;12.074;2022-07-29T07:26:27;20.40;79.30
2841;DHT22;53423;49.224;12.074;2022-07-29T07:28:55;20.60;78.80
2841;DHT22;53423;49.224;12.074;2022-07-29T07:31:23;20.70;76.40
2841;DHT22;53423;49.224;12.074;2022-07-29T07:33:51;20.90;76.30
2841;DHT22;53423;49.224;12.074;2022-07-29T07:36:20;21.00;76.20
2841;DHT22;53423;49.224;12.074;2022-07-29T07:38:48;21.20;71.70
2841;DHT22;53423;49.224;12.074;2022-07-29T07:41:16;21.40;72.50
2841;DHT22;53423;49.224;12.074;2022-07-29T07:43:45;21.80;72.30
2841;DHT22;53423;49.224;12.074;2022-07-29T07:46:14;22.30;72.70
2841;DHT22;53423;49.224;12.074;2022-07-29T07:48:42;22.90;68.00
2841;DHT22;53423;49.224;12.074;2022-07-29T07:51:10;23.50;65.20
2841;DHT22;53423;49.224;12.074;2022-07-29T07:53:38;24.00;66.20
2841;DHT22;53423;49.224;12.074;2022-07-29T07:56:08;24.40;62.90
2841;DHT22;53423;49.224;12.074;2022-07-29T07:58:38;24.70;61.40
2841;DHT22;53423;49.224;12.074;2022-07-29T08:01:08;24.90;59.90
2841;DHT22;53423;49.224;12.074;2022-07-29T08:03:36;25.30;59.40
2841;DHT22;53423;49.224;12.074;2022-07-29T08:06:05;25.60;57.20
2841;DHT22;53423;49.224;12.074;2022-07-29T08:08:33;25.60;59.20
2841;DHT22;53423;49.224;12.074;2022-07-29T08:11:01;25.90;59.40
2841;DHT22;53423;49.224;12.074;2022-07-29T08:13:36;25.90;56.80
2841;DHT22;53423;49.224;12.074;2022-07-29T08:16:05;26.20;56.60
2841;DHT22;53423;49.224;12.074;2022-07-29T08:18:42;26.30;57.00
2841;DHT22;53423;49.224;12.074;2022-07-29T08:21:11;26.50;56.60
2841;DHT22;53423;49.224;12.074;2022-07-29T08:23:41;26.60;55.70
2841;DHT22;53423;49.224;12.074;2022-07-29T08:26:24;26.40;54.30
2841;DHT22;53423;49.224;12.074;2022-07-29T08:28:52;26.60;56.20
2841;DHT22;53423;49.224;12.074;2022-07-29T08:31:20;26.80;55.30
2841;DHT22;53423;49.224;12.074;2022-07-29T08:33:50;26.90;54.70
2841;DHT22;53423;49.224;12.074;2022-07-29T08:36:18;26.50;54.80
2841;DHT22;53423;49.224;12.074;2022-07-29T08:38:47;26.30;55.30
2841;DHT22;53423;49.224;12.074;2022-07-29T08:41:16;26.20;55.20
2841;DHT22;53423;49.224;12.074;2022-07-29T08:43:45;25.60;55.30
2841;DHT22;53423;49.224;12.074;2022-07-29T08:46:14;25.40;56.80
2841;DHT22;53423;49.224;12.074;2022-07-29T08:48:42;25.20;57.40
2841;DHT22;53423;49.224;12.074;2022-07-29T08:51:15;25.00;57.50
2841;DHT22;53423;49.224;12.074;2022-07-29T08:53:44;24.80;58.10
2841;DHT22;53423;49.224;12.074;2022-07-29T08:56:14;24.90;59.10
2841;DHT22;53423;49.224;12.074;2022-07-29T08:58:44;25.30;59.30
2841;DHT22;53423;49.224;12.074;2022-07-29T09:01:21;25.80;58.50
2841;DHT22;53423;49.224;12.074;2022-07-29T09:04:11;26.00;57.90
2841;DHT22;53423;49.224;12.074;2022-07-29T09:06:44;25.90;58.50
2841;DHT22;53423;49.224;12.074;2022-07-29T09:09:12;25.80;58.50
2841;DHT22;53423;49.224;12.074;2022-07-29T09:11:42;25.60;59.20
2841;DHT22;53423;49.224;12.074;2022-07-29T09:14:12;25.30;60.00
2841;DHT22;53423;49.224;12.074;2022-07-29T09:16:48;25.30;61.90
2841;DHT22;53423;49.224;12.074;2022-07-29T09:19:24;25.10;62.60
2841;DHT22;53423;49.224;12.074;2022-07-29T09:21:55;25.10;62.50
2841;DHT22;53423;49.224;12.074;2022-07-29T09:24:27;25.00;63.60
2841;DHT22;53423;49.224;12.074;2022-07-29T09:26:55;25.00;63.30
2841;DHT22;53423;49.224;12.074;2022-07-29T09:29:23;25.10;63.00
2841;DHT22;53423;49.224;12.074;2022-07-29T09:31:53;25.10;62.80
2841;DHT22;53423;49.224;12.074;2022-07-29T09:34:23;24.90;63.30
2841;DHT22;53423;49.224;12.074;2022-07-29T09:36:53;24.90;63.90
2841;DHT22;53423;49.224;12.074;2022-07-29T09:39:30;24.80;64.30
2841;DHT22;53423;49.224;12.074;2022-07-29T09:42:01;24.90;63.60
2841;DHT22;53423;49.224;12.074;2022-07-29T09:44:44;25.10;64.80
2841;DHT22;53423;49.224;12.074;2022-07-29T09:47:12;25.20;64.40
2841;DHT22;53423;49.224;12.074;2022-07-29T09:49:54;25.50;65.00
2841;DHT22;53423;49.224;12.074;2022-07-29T09:52:26;26.00;63.80
2841;DHT22;53423;49.224;12.074;2022-07-29T09:55:04;26.60;63.20
2841;DHT22;53423;49.224;12.074;2022-07-29T09:57:32;27.10;59.80
2841;DHT22;53423;49.224;12.074;2022-07-29T10:00:05;27.20;58.90
2841;DHT22;53423;49.224;12.074;2022-07-29T10:02:34;27.30;59.60
2841;DHT22;53423;49.224;12.074;2022-07-29T10:05:05;27.40;58.00
2841;DHT22;53423;49.224;12.074;2022-07-29T10:07:45;27.50;59.30
2841;DHT22;53423;49.224;12.074;2022-07-29T10:10:21;27.50;58.50
2841;DHT22;53423;49.224;12.074;2022-07-29T10:12:52;27.50;58.40
2841;DHT22;53423;49.224;12.074;2022-07-29T10:15:22;27.70;58.70
2841;DHT22;53423;49.224;12.074;2022-07-29T10:17:51;27.90;57.40
2841;DHT22;53423;49.224;12.074;2022-07-29T10:20:20;28.00;57.70
2841;DHT22;53423;49.224;12.074;2022-07-29T10:22:51;28.20;57.80
2841;DHT22;53423;49.224;12.074;2022-07-29T10:25:20;28.60;58.70
2841;DHT22;53423;49.224;12.074;2022-07-29T10:27:49;29.00;56.00
2841;DHT22;53423;49.224;12.074;2022-07-29T10:30:21;29.20;54.70
2841;DHT22;53423;49.224;12.074;2022-07-29T10:32:58;29.50;53.20
2841;DHT22;53423;49.224;12.074;2022-07-29T10:35:59;29.60;53.30
2841;DHT22;53423;49.224;12.074;2022-07-29T10:38:59;29.50;52.20
2841;DHT22;53423;49.224;12.074;2022-07-29T10:41:48;29.30;54.00
2841;DHT22;53423;49.224;12.074;2022-07-29T10:44:19;29.40;54.70
2841;DHT22;53423;49.224;12.074;2022-07-29T10:46:50;29.60;53.50
2841;DHT22;53423;49.224;12.074;2022-07-29T10:49:19;29.70;51.70
2841;DHT22;53423;49.224;12.074;2022-07-29T10:51:55;29.90;49.90
2841;DHT22;53423;49.224;12.074;2022-07-29T10:54:45;30.10;51.60
2841;DHT22;53423;49.224;12.074;2022-07-29T10:57:22;30.30;50.70
2841;DHT22;53423;49.224;12.074;2022-07-29T11:00:30;30.50;50.50
2841;DHT22;53423;49.224;12.074;2022-07-29T11:02:58;30.50;50.70
2841;DHT22;53423;49.224;12.074;2022-07-29T11:05:52;30.60;51.00
2841;DHT22;53423;49.224;12.074;2022-07-29T11:08:22;30.70;49.90
2841;DHT22;53423;49.224;12.074;2022-07-29T11:14:02;30.50;49.40
2841;DHT22;53423;49.224;12.074;2022-07-29T11:16:57;30.40;50.40
2841;DHT22;53423;49.224;12.074;2022-07-29T11:19:26;30.60;49.90
2841;DHT22;53423;49.224;12.074;2022-07-29T11:21:57;30.60;47.90
2841;DHT22;53423;49.224;12.074;2022-07-29T11:24:26;30.50;48.10
2841;DHT22;53423;49.224;12.074;2022-07-29T11:27:12;30.40;48.90
2841;DHT22;53423;49.224;12.074;2022-07-29T11:29:55;30.40;49.00
2841;DHT22;53423;49.224;12.074;2022-07-29T11:32:36;30.10;50.60
2841;DHT22;53423;49.224;12.074;2022-07-29T11:35:13;30.40;49.60
2841;DHT22;53423;49.224;12.074;2022-07-29T11:37:44;30.40;48.60
2841;DHT22;53423;49.224;12.074;2022-07-29T11:40:23;30.50;50.30
2841;DHT22;53423;49.224;12.074;2022-07-29T11:42:52;30.80;50.90
2841;DHT22;53423;49.224;12.074;2022-07-29T11:45:24;30.70;48.80
2841;DHT22;53423;49.224;12.074;2022-07-29T11:48:15;30.60;48.80
2841;DHT22;53423;49.224;12.074;2022-07-29T11:50:56;30.60;50.60
2841;DHT22;53423;49.224;12.074;2022-07-29T11:53:25;30.80;49.80
2841;DHT22;53423;49.224;12.074;2022-07-29T11:55:59;30.80;49.10
2841;DHT22;53423;49.224;12.074;2022-07-29T11:58:29;30.60;50.30
2841;DHT22;53423;49.224;12.074;2022-07-29T12:01:00;30.10;47.60
2841;DHT22;53423;49.224;12.074;2022-07-29T12:04:02;29.60;48.00
2841;DHT22;53423;49.224;12.074;2022-07-29T12:06:32;29.30;48.80
2841;DHT22;53423;49.224;12.074;2022-07-29T12:09:06;29.20;49.60
2841;DHT22;53423;49.224;12.074;2022-07-29T12:11:40;29.10;50.50
2841;DHT22;53423;49.224;12.074;2022-07-29T12:14:25;29.10;49.80
2841;DHT22;53423;49.224;12.074;2022-07-29T12:16:55;28.90;50.70
2841;DHT22;53423;49.224;12.074;2022-07-29T12:19:24;28.90;50.70
2841;DHT22;53423;49.224;12.074;2022-07-29T12:21:54;28.90;50.90
2841;DHT22;53423;49.224;12.074;2022-07-29T12:24:26;28.80;52.00
2841;DHT22;53423;49.224;12.074;2022-07-29T12:27:10;28.80;54.20
2841;DHT22;53423;49.224;12.074;2022-07-29T12:29:40;28.70;53.50
2841;DHT22;53423;49.224;12.074;2022-07-29T12:32:16;28.60;53.20
2841;DHT22;53423;49.224;12.074;2022-07-29T12:34:45;28.60;51.30
2841;DHT22;53423;49.224;12.074;2022-07-29T12:37:14;28.40;51.00
2841;DHT22;53423;49.224;12.074;2022-07-29T12:39:42;28.20;48.30
2841;DHT22;53423;49.224;12.074;2022-07-29T12:42:11;28.00;48.00
2841;DHT22;53423;49.224;12.074;2022-07-29T12:44:45;27.80;48.70
2841;DHT22;53423;49.224;12.074;2022-07-29T12:47:16;27.80;50.30
2841;DHT22;53423;49.224;12.074;2022-07-29T12:49:45;27.70;49.30
2841;DHT22;53423;49.224;12.074;2022-07-29T12:52:28;27.70;49.50
2841;DHT22;53423;49.224;12.074;2022-07-29T12:54:56;27.70;49.70
2841;DHT22;53423;49.224;12.074;2022-07-29T12:57:26;27.60;49.70
2841;DHT22;53423;49.224;12.074;2022-07-29T13:00:06;27.40;50.80
2841;DHT22;53423;49.224;12.074;2022-07-29T13:02:38;27.20;52.60
2841;DHT22;53423;49.224;12.074;2022-07-29T13:05:08;27.10;51.80
2841;DHT22;53423;49.224;12.074;2022-07-29T13:07:37;27.10;54.60
2841;DHT22;53423;49.224;12.074;2022-07-29T13:10:23;27.00;53.70
2841;DHT22;53423;49.224;12.074;2022-07-29T13:13:02;27.00;55.80
2841;DHT22;53423;49.224;12.074;2022-07-29T13:15:31;26.90;56.90
2841;DHT22;53423;49.224;12.074;2022-07-29T13:18:00;26.70;59.40
2841;DHT22;53423;49.224;12.074;2022-07-29T13:20:29;26.60;58.50
2841;DHT22;53423;49.224;12.074;2022-07-29T13:22:58;26.50;60.70
2841;DHT22;53423;49.224;12.074;2022-07-29T13:25:28;26.40;60.20
2841;DHT22;53423;49.224;12.074;2022-07-29T13:27:56;26.40;64.00
2841;DHT22;53423;49.224;12.074;2022-07-29T13:30:25;26.20;65.50
2841;DHT22;53423;49.224;12.074;2022-07-29T13:32:54;26.10;64.30
2841;DHT22;53423;49.224;12.074;2022-07-29T13:35:23;26.10;67.80
2841;DHT22;53423;49.224;12.074;2022-07-29T13:37:51;25.90;68.90
2841;DHT22;53423;49.224;12.074;2022-07-29T13:40:19;25.90;71.60
2841;DHT22;53423;49.224;12.074;2022-07-29T13:42:47;25.70;71.40
2841;DHT22;53423;49.224;12.074;2022-07-29T13:45:15;25.60;71.10
2841;DHT22;53423;49.224;12.074;2022-07-29T13:47:44;25.60;73.90
2841;DHT22;53423;49.224;12.074;2022-07-29T13:50:15;25.60;75.50
2841;DHT22;53423;49.224;12.074;2022-07-29T13:52:44;25.40;76.10
2841;DHT22;53423;49.224;12.074;2022-07-29T13:55:14;25.40;77.80
2841;DHT22;53423;49.224;12.074;2022-07-29T13:57:42;25.30;75.90
2841;DHT22;53423;49.224;12.074;2022-07-29T14:00:12;25.10;76.30
2841;DHT22;53423;49.224;12.074;2022-07-29T14:02:40;25.00;76.70
2841;DHT22;53423;49.224;12.074;2022-07-29T14:05:08;25.00;76.80
2841;DHT22;53423;49.224;12.074;2022-07-29T14:07:38;25.00;80.20
2841;DHT22;53423;49.224;12.074;2022-07-29T14:10:08;24.90;79.50
2841;DHT22;53423;49.224;12.074;2022-07-29T14:12:36;25.00;80.30
2841;DHT22;53423;49.224;12.074;2022-07-29T14:15:06;24.90;78.80
2841;DHT22;53423;49.224;12.074;2022-07-29T14:17:34;24.90;80.60
2841;DHT22;53423;49.224;12.074;2022-07-29T14:20:02;24.90;80.60
2841;DHT22;53423;49.224;12.074;2022-07-29T14:22:31;24.90;81.10
2841;DHT22;53423;49.224;12.074;2022-07-29T14:25:07;24.80;83.10
2841;DHT22;53423;49.224;12.074;2022-07-29T14:27:41;24.70;82.60
2841;DHT22;53423;49.224;12.074;2022-07-29T14:30:10;24.70;85.80
2841;DHT22;53423;49.224;12.074;2022-07-29T14:32:38;24.70;88.00
2841;DHT22;53423;49.224;12.074;2022-07-29T14:35:07;24.40;88.90
2841;DHT22;53423;49.224;12.074;2022-07-29T14:37:35;24.30;89.60
2841;DHT22;53423;49.224;12.074;2022-07-29T14:40:09;24.10;90.20
2841;DHT22;53423;49.224;12.074;2022-07-29T14:42:38;24.00;91.20
2841;DHT22;53423;49.224;12.074;2022-07-29T14:45:07;23.90;92.30
2841;DHT22;53423;49.224;12.074;2022-07-29T14:47:36;24.00;93.10
2841;DHT22;53423;49.224;12.074;2022-07-29T14:50:05;23.90;93.00
2841;DHT22;53423;49.224;12.074;2022-07-29T14:52:34;23.90;93.50
2841;DHT22;53423;49.224;12.074;2022-07-29T14:55:02;24.10;93.20
2841;DHT22;53423;49.224;12.074;2022-07-29T14:57:43;24.20;93.50
2841;DHT22;53423;49.224;12.074;2022-07-29T15:00:12;24.40;94.00
2841;DHT22;53423;49.224;12.074;2022-07-29T15:02:40;24.70;91.90
2841;DHT22;53423;49.224;12.074;2022-07-29T15:05:28;24.80;87.60
2841;DHT22;53423;49.224;12.074;2022-07-29T15:07:56;24.90;84.20
2841;DHT22;53423;49.224;12.074;2022-07-29T15:10:24;25.00;85.60
2841;DHT22;53423;49.224;12.074;2022-07-29T15:12:54;25.00;82.20
2841;DHT22;53423;49.224;12.074;2022-07-29T15:15:22;25.10;77.10
2841;DHT22;53423;49.224;12.074;2022-07-29T15:17:50;25.10;76.10
2841;DHT22;53423;49.224;12.074;2022-07-29T15:20:18;25.10;76.40
2841;DHT22;53423;49.224;12.074;2022-07-29T15:22:47;25.10;74.30
2841;DHT22;53423;49.224;12.074;2022-07-29T15:25:16;25.10;74.50
2841;DHT22;53423;49.224;12.074;2022-07-29T15:27:44;25.10;73.50
2841;DHT22;53423;49.224;12.074;2022-07-29T15:30:20;25.10;70.30
2841;DHT22;53423;49.224;12.074;2022-07-29T15:33:00;25.20;71.10
2841;DHT22;53423;49.224;12.074;2022-07-29T15:35:28;25.10;70.80
2841;DHT22;53423;49.224;12.074;2022-07-29T15:37:57;25.10;67.60
2841;DHT22;53423;49.224;12.074;2022-07-29T15:40:25;25.10;70.50
2841;DHT22;53423;49.224;12.074;2022-07-29T15:42:53;25.10;66.80
2841;DHT22;53423;49.224;12.074;2022-07-29T15:45:23;25.00;71.50
2841;DHT22;53423;49.224;12.074;2022-07-29T15:47:57;25.00;69.60
2841;DHT22;53423;49.224;12.074;2022-07-29T15:50:25;25.00;70.20
2841;DHT22;53423;49.224;12.074;2022-07-29T15:52:53;24.90;68.40
2841;DHT22;53423;49.224;12.074;2022-07-29T15:55:21;24.90;70.50
2841;DHT22;53423;49.224;12.074;2022-07-29T15:57:50;24.90;67.10
2841;DHT22;53423;49.224;12.074;2022-07-29T16:00:25;24.80;70.40